sensor_id;sensor_type;location;lat;lon;timestamp;P1;durP1;ratioP1;P2;durP2;ratioP2
57317;SDS011;43157;50.982;18.132;2023-06-26T00:00:34;14.90;;;5.40;;
57317;SDS011;43157;50.982;18.132;2023-06-26T00:03:02;13.90;;;6.10;;
57317;SDS011;43157;50.982;18.132;2023-06-26T00:05:28;11.30;;;5.00;;
57317;SDS011;43157;50.982;18.132;2023-06-26T00:07:56;12.00;;;4.70;;
57317;SDS011;43157;50.982;18.132;2023-06-26T00:10:22;13.20;;;5.40;;
57317;SDS011;43157;50.982;18.132;2023-06-26T00:12:48;14.70;;;5.60;;
57317;SDS011;43157;50.982;18.132;2023-06-26T00:15:14;11.70;;;5.00;;
57317;SDS011;43157;50.982;18.132;2023-06-26T00:17:41;17.20;;;5.80;;
57317;SDS011;43157;50.982;18.132;2023-06-26T00:20:07;16.30;;;6.10;;
57317;SDS011;43157;50.982;18.132;2023-06-26T00:22:34;12.60;;;5.30;;
57317;SDS011;43157;50.982;18.132;2023-06-26T00:25:00;13.20;;;5.80;;
57317;SDS011;43157;50.982;18.132;2023-06-26T00:27:26;13.40;;;5.50;;
57317;SDS011;43157;50.982;18.132;2023-06-26T00:29:53;12.50;;;5.50;;
57317;SDS011;43157;50.982;18.132;2023-06-26T00:32:19;12.40;;;5.40;;
57317;SDS011;43157;50.982;18.132;2023-06-26T00:34:45;12.30;;;5.30;;
57317;SDS011;43157;50.982;18.132;2023-06-26T00:37:12;13.10;;;5.50;;
57317;SDS011;43157;50.982;18.132;2023-06-26T00:39:38;16.10;;;5.80;;
57317;SDS011;43157;50.982;18.132;2023-06-26T00:42:04;15.20;;;5.80;;
57317;SDS011;43157;50.982;18.132;2023-06-26T00:44:30;16.70;;;5.50;;
57317;SDS011;43157;50.982;18.132;2023-06-26T00:46:56;14.60;;;5.70;;
57317;SDS011;43157;50.982;18.132;2023-06-26T00:49:23;14.20;;;6.00;;
57317;SDS011;43157;50.982;18.132;2023-06-26T00:51:49;12.20;;;5.50;;
57317;SDS011;43157;50.982;18.132;2023-06-26T00:54:15;13.80;;;5.20;;
57317;SDS011;43157;50.982;18.132;2023-06-26T00:56:48;12.40;;;5.70;;
57317;SDS011;43157;50.982;18.132;2023-06-26T00:59:14;15.00;;;6.90;;
57317;SDS011;43157;50.982;18.132;2023-06-26T01:01:40;14.90;;;6.10;;
57317;SDS011;43157;50.982;18.132;2023-06-26T01:04:06;16.10;;;6.10;;
57317;SDS011;43157;50.982;18.132;2023-06-26T01:06:32;16.50;;;6.30;;
57317;SDS011;43157;50.982;18.132;2023-06-26T01:09:01;16.20;;;7.10;;
57317;SDS011;43157;50.982;18.132;2023-06-26T01:11:28;13.10;;;5.50;;
57317;SDS011;43157;50.982;18.132;2023-06-26T01:13:54;18.00;;;6.50;;
57317;SDS011;43157;50.982;18.132;2023-06-26T01:16:22;14.50;;;6.00;;
57317;SDS011;43157;50.982;18.132;2023-06-26T01:18:48;14.30;;;5.90;;
57317;SDS011;43157;50.982;18.132;2023-06-26T01:21:15;16.70;;;6.20;;
57317;SDS011;43157;50.982;18.132;2023-06-26T01:26:23;16.30;;;5.90;;
57317;SDS011;43157;50.982;18.132;2023-06-26T01:28:52;15.70;;;5.50;;
57317;SDS011;43157;50.982;18.132;2023-06-26T01:31:19;14.10;;;5.90;;
57317;SDS011;43157;50.982;18.132;2023-06-26T01:33:45;15.90;;;6.10;;
57317;SDS011;43157;50.982;18.132;2023-06-26T01:36:12;13.70;;;6.00;;
57317;SDS011;43157;50.982;18.132;2023-06-26T01:38:38;13.30;;;6.20;;
57317;SDS011;43157;50.982;18.132;2023-06-26T01:41:05;16.90;;;6.20;;
57317;SDS011;43157;50.982;18.132;2023-06-26T01:46:19;15.20;;;6.50;;
57317;SDS011;43157;50.982;18.132;2023-06-26T01:51:24;15.20;;;6.40;;
57317;SDS011;43157;50.982;18.132;2023-06-26T01:53:56;14.30;;;5.90;;
57317;SDS011;43157;50.982;18.132;2023-06-26T01:56:23;14.50;;;6.10;;
57317;SDS011;43157;50.982;18.132;2023-06-26T01:58:49;14.30;;;6.50;;
57317;SDS011;43157;50.982;18.132;2023-06-26T02:01:18;16.70;;;6.20;;
57317;SDS011;43157;50.982;18.132;2023-06-26T02:03:45;20.50;;;6.60;;
57317;SDS011;43157;50.982;18.132;2023-06-26T02:06:11;15.40;;;6.50;;
57317;SDS011;43157;50.982;18.132;2023-06-26T02:08:37;13.90;;;5.70;;
57317;SDS011;43157;50.982;18.132;2023-06-26T02:11:03;16.90;;;6.30;;
57317;SDS011;43157;50.982;18.132;2023-06-26T02:13:29;13.80;;;5.90;;
57317;SDS011;43157;50.982;18.132;2023-06-26T02:15:56;12.70;;;5.80;;
57317;SDS011;43157;50.982;18.132;2023-06-26T02:18:22;16.80;;;6.80;;
57317;SDS011;43157;50.982;18.132;2023-06-26T02:20:49;13.10;;;5.50;;
57317;SDS011;43157;50.982;18.132;2023-06-26T02:23:15;12.70;;;5.80;;
57317;SDS011;43157;50.982;18.132;2023-06-26T02:25:41;17.20;;;6.50;;
57317;SDS011;43157;50.982;18.132;2023-06-26T02:28:07;17.20;;;6.10;;
57317;SDS011;43157;50.982;18.132;2023-06-26T02:30:33;15.80;;;6.10;;
57317;SDS011;43157;50.982;18.132;2023-06-26T02:33:00;19.60;;;6.80;;
57317;SDS011;43157;50.982;18.132;2023-06-26T02:35:26;15.70;;;5.60;;
57317;SDS011;43157;50.982;18.132;2023-06-26T02:37:52;15.90;;;6.20;;
57317;SDS011;43157;50.982;18.132;2023-06-26T02:40:18;14.10;;;6.30;;
57317;SDS011;43157;50.982;18.132;2023-06-26T02:42:44;14.70;;;6.30;;
57317;SDS011;43157;50.982;18.132;2023-06-26T02:45:11;14.50;;;5.90;;
57317;SDS011;43157;50.982;18.132;2023-06-26T02:47:37;12.80;;;5.60;;
57317;SDS011;43157;50.982;18.132;2023-06-26T02:50:06;14.70;;;5.30;;
57317;SDS011;43157;50.982;18.132;2023-06-26T02:52:32;16.30;;;5.80;;
57317;SDS011;43157;50.982;18.132;2023-06-26T02:54:58;14.70;;;6.10;;
57317;SDS011;43157;50.982;18.132;2023-06-26T02:57:25;14.50;;;5.60;;
57317;SDS011;43157;50.982;18.132;2023-06-26T02:59:51;16.30;;;6.20;;
57317;SDS011;43157;50.982;18.132;2023-06-26T03:02:17;13.40;;;5.50;;
57317;SDS011;43157;50.982;18.132;2023-06-26T03:04:43;15.50;;;6.10;;
57317;SDS011;43157;50.982;18.132;2023-06-26T03:07:09;14.30;;;6.90;;
57317;SDS011;43157;50.982;18.132;2023-06-26T03:09:36;15.60;;;6.20;;
57317;SDS011;43157;50.982;18.132;2023-06-26T03:12:02;13.80;;;6.00;;
57317;SDS011;43157;50.982;18.132;2023-06-26T03:14:28;15.70;;;6.80;;
57317;SDS011;43157;50.982;18.132;2023-06-26T03:16:55;15.10;;;6.30;;
57317;SDS011;43157;50.982;18.132;2023-06-26T03:19:23;15.60;;;6.10;;
57317;SDS011;43157;50.982;18.132;2023-06-26T03:21:50;16.10;;;5.80;;
57317;SDS011;43157;50.982;18.132;2023-06-26T03:24:15;14.30;;;6.20;;
57317;SDS011;43157;50.982;18.132;2023-06-26T03:26:41;13.40;;;6.10;;
57317;SDS011;43157;50.982;18.132;2023-06-26T03:29:08;12.60;;;5.30;;
57317;SDS011;43157;50.982;18.132;2023-06-26T03:31:34;13.70;;;6.30;;
57317;SDS011;43157;50.982;18.132;2023-06-26T03:34:00;14.00;;;5.80;;
57317;SDS011;43157;50.982;18.132;2023-06-26T03:36:26;20.60;;;6.50;;
57317;SDS011;43157;50.982;18.132;2023-06-26T03:38:52;14.70;;;6.90;;
57317;SDS011;43157;50.982;18.132;2023-06-26T03:41:22;16.70;;;6.40;;
57317;SDS011;43157;50.982;18.132;2023-06-26T03:43:49;13.90;;;6.10;;
57317;SDS011;43157;50.982;18.132;2023-06-26T03:46:15;18.00;;;7.30;;
57317;SDS011;43157;50.982;18.132;2023-06-26T03:48:41;16.50;;;6.30;;
57317;SDS011;43157;50.982;18.132;2023-06-26T03:51:08;18.80;;;6.80;;
57317;SDS011;43157;50.982;18.132;2023-06-26T03:53:34;18.60;;;6.90;;
57317;SDS011;43157;50.982;18.132;2023-06-26T03:56:00;14.90;;;6.60;;
57317;SDS011;43157;50.982;18.132;2023-06-26T03:58:26;16.20;;;6.50;;
57317;SDS011;43157;50.982;18.132;2023-06-26T04:14:04;21.40;;;7.50;;
57317;SDS011;43157;50.982;18.132;2023-06-26T04:16:30;16.30;;;7.20;;
57317;SDS011;43157;50.982;18.132;2023-06-26T04:18:56;16.90;;;7.30;;
57317;SDS011;43157;50.982;18.132;2023-06-26T04:21:23;18.70;;;7.50;;
57317;SDS011;43157;50.982;18.132;2023-06-26T04:23:52;17.90;;;7.20;;
57317;SDS011;43157;50.982;18.132;2023-06-26T04:26:18;17.40;;;7.30;;
57317;SDS011;43157;50.982;18.132;2023-06-26T04:28:44;20.80;;;7.70;;
57317;SDS011;43157;50.982;18.132;2023-06-26T04:31:10;18.60;;;7.00;;
57317;SDS011;43157;50.982;18.132;2023-06-26T04:33:36;16.40;;;7.40;;
57317;SDS011;43157;50.982;18.132;2023-06-26T04:36:06;18.90;;;7.10;;
57317;SDS011;43157;50.982;18.132;2023-06-26T04:38:32;19.10;;;7.40;;
57317;SDS011;43157;50.982;18.132;2023-06-26T04:40:58;21.00;;;7.60;;
57317;SDS011;43157;50.982;18.132;2023-06-26T04:43:27;17.50;;;7.40;;
57317;SDS011;43157;50.982;18.132;2023-06-26T04:45:54;25.00;;;7.80;;
57317;SDS011;43157;50.982;18.132;2023-06-26T04:48:20;14.90;;;7.10;;
57317;SDS011;43157;50.982;18.132;2023-06-26T04:50:46;19.10;;;7.50;;
57317;SDS011;43157;50.982;18.132;2023-06-26T04:53:20;19.80;;;8.00;;
57317;SDS011;43157;50.982;18.132;2023-06-26T04:55:46;18.60;;;7.70;;
57317;SDS011;43157;50.982;18.132;2023-06-26T04:58:12;21.00;;;7.50;;
57317;SDS011;43157;50.982;18.132;2023-06-26T05:00:39;18.30;;;8.00;;
57317;SDS011;43157;50.982;18.132;2023-06-26T05:03:08;17.80;;;7.90;;
57317;SDS011;43157;50.982;18.132;2023-06-26T05:05:35;20.50;;;8.00;;
57317;SDS011;43157;50.982;18.132;2023-06-26T05:08:13;17.40;;;7.60;;
57317;SDS011;43157;50.982;18.132;2023-06-26T05:10:40;18.50;;;9.00;;
57317;SDS011;43157;50.982;18.132;2023-06-26T05:13:06;20.50;;;8.00;;
57317;SDS011;43157;50.982;18.132;2023-06-26T05:15:32;18.70;;;7.50;;
57317;SDS011;43157;50.982;18.132;2023-06-26T05:17:58;17.10;;;7.70;;
57317;SDS011;43157;50.982;18.132;2023-06-26T05:20:25;16.90;;;7.70;;
57317;SDS011;43157;50.982;18.132;2023-06-26T05:22:51;19.10;;;7.90;;
57317;SDS011;43157;50.982;18.132;2023-06-26T05:25:18;15.90;;;7.80;;
57317;SDS011;43157;50.982;18.132;2023-06-26T05:27:47;19.00;;;8.70;;
57317;SDS011;43157;50.982;18.132;2023-06-26T05:30:13;20.60;;;8.40;;
57317;SDS011;43157;50.982;18.132;2023-06-26T05:32:40;17.60;;;8.80;;
57317;SDS011;43157;50.982;18.132;2023-06-26T05:35:06;18.90;;;8.30;;
57317;SDS011;43157;50.982;18.132;2023-06-26T05:37:33;17.70;;;7.90;;
57317;SDS011;43157;50.982;18.132;2023-06-26T05:40:00;21.30;;;9.40;;
57317;SDS011;43157;50.982;18.132;2023-06-26T05:42:28;19.40;;;9.20;;
57317;SDS011;43157;50.982;18.132;2023-06-26T05:44:55;17.20;;;7.30;;
57317;SDS011;43157;50.982;18.132;2023-06-26T05:47:21;17.70;;;8.60;;
57317;SDS011;43157;50.982;18.132;2023-06-26T05:49:48;15.40;;;8.00;;
57317;SDS011;43157;50.982;18.132;2023-06-26T05:52:14;18.60;;;8.50;;
57317;SDS011;43157;50.982;18.132;2023-06-26T05:54:41;16.60;;;8.20;;
57317;SDS011;43157;50.982;18.132;2023-06-26T05:57:07;16.30;;;9.00;;
57317;SDS011;43157;50.982;18.132;2023-06-26T05:59:33;16.70;;;8.60;;
57317;SDS011;43157;50.982;18.132;2023-06-26T06:02:02;16.30;;;8.40;;
57317;SDS011;43157;50.982;18.132;2023-06-26T06:04:28;17.30;;;8.10;;
57317;SDS011;43157;50.982;18.132;2023-06-26T06:06:54;17.20;;;9.00;;
57317;SDS011;43157;50.982;18.132;2023-06-26T06:09:20;16.90;;;8.50;;
57317;SDS011;43157;50.982;18.132;2023-06-26T06:11:46;16.10;;;7.70;;
57317;SDS011;43157;50.982;18.132;2023-06-26T06:14:12;18.10;;;8.40;;
57317;SDS011;43157;50.982;18.132;2023-06-26T06:16:39;14.90;;;7.10;;
57317;SDS011;43157;50.982;18.132;2023-06-26T06:19:05;15.20;;;7.30;;
57317;SDS011;43157;50.982;18.132;2023-06-26T06:21:33;17.00;;;7.50;;
57317;SDS011;43157;50.982;18.132;2023-06-26T06:23:59;13.50;;;6.60;;
57317;SDS011;43157;50.982;18.132;2023-06-26T06:26:26;14.10;;;6.80;;
57317;SDS011;43157;50.982;18.132;2023-06-26T06:28:52;12.00;;;5.80;;
57317;SDS011;43157;50.982;18.132;2023-06-26T06:31:18;12.80;;;6.20;;
57317;SDS011;43157;50.982;18.132;2023-06-26T06:33:44;14.00;;;6.30;;
57317;SDS011;43157;50.982;18.132;2023-06-26T06:36:10;13.40;;;6.10;;
57317;SDS011;43157;50.982;18.132;2023-06-26T06:38:37;13.60;;;6.50;;
57317;SDS011;43157;50.982;18.132;2023-06-26T06:41:03;13.40;;;6.50;;
57317;SDS011;43157;50.982;18.132;2023-06-26T06:43:29;14.40;;;6.50;;
57317;SDS011;43157;50.982;18.132;2023-06-26T06:45:55;13.40;;;6.20;;
57317;SDS011;43157;50.982;18.132;2023-06-26T06:48:21;15.20;;;6.40;;
57317;SDS011;43157;50.982;18.132;2023-06-26T06:50:48;12.30;;;6.00;;
57317;SDS011;43157;50.982;18.132;2023-06-26T06:53:14;12.10;;;6.10;;
57317;SDS011;43157;50.982;18.132;2023-06-26T06:55:40;12.00;;;6.50;;
57317;SDS011;43157;50.982;18.132;2023-06-26T06:58:06;12.50;;;5.90;;
57317;SDS011;43157;50.982;18.132;2023-06-26T07:00:32;12.40;;;5.80;;
57317;SDS011;43157;50.982;18.132;2023-06-26T07:02:59;12.60;;;5.50;;
57317;SDS011;43157;50.982;18.132;2023-06-26T07:05:25;11.40;;;5.10;;
57317;SDS011;43157;50.982;18.132;2023-06-26T07:07:51;14.20;;;6.00;;
57317;SDS011;43157;50.982;18.132;2023-06-26T07:10:18;13.70;;;5.40;;
57317;SDS011;43157;50.982;18.132;2023-06-26T07:12:44;11.10;;;5.60;;
57317;SDS011;43157;50.982;18.132;2023-06-26T07:15:10;11.00;;;5.20;;
57317;SDS011;43157;50.982;18.132;2023-06-26T07:17:36;11.20;;;4.60;;
57317;SDS011;43157;50.982;18.132;2023-06-26T07:20:05;11.90;;;4.60;;
57317;SDS011;43157;50.982;18.132;2023-06-26T07:22:34;10.30;;;5.10;;
57317;SDS011;43157;50.982;18.132;2023-06-26T07:25:00;11.10;;;4.50;;
57317;SDS011;43157;50.982;18.132;2023-06-26T07:27:26;9.50;;;3.80;;
57317;SDS011;43157;50.982;18.132;2023-06-26T07:29:52;9.80;;;4.10;;
57317;SDS011;43157;50.982;18.132;2023-06-26T07:32:19;10.50;;;4.50;;
57317;SDS011;43157;50.982;18.132;2023-06-26T07:34:45;11.30;;;4.30;;
57317;SDS011;43157;50.982;18.132;2023-06-26T07:37:11;12.20;;;4.80;;
57317;SDS011;43157;50.982;18.132;2023-06-26T07:39:37;9.80;;;4.00;;
57317;SDS011;43157;50.982;18.132;2023-06-26T07:42:03;17.10;;;4.60;;
57317;SDS011;43157;50.982;18.132;2023-06-26T07:44:30;10.60;;;3.60;;
57317;SDS011;43157;50.982;18.132;2023-06-26T07:46:56;9.50;;;4.20;;
57317;SDS011;43157;50.982;18.132;2023-06-26T07:49:22;10.30;;;3.70;;
57317;SDS011;43157;50.982;18.132;2023-06-26T07:51:48;8.40;;;3.70;;
57317;SDS011;43157;50.982;18.132;2023-06-26T07:54:14;9.20;;;3.00;;
57317;SDS011;43157;50.982;18.132;2023-06-26T07:59:20;8.80;;;3.20;;
57317;SDS011;43157;50.982;18.132;2023-06-26T08:01:48;8.90;;;4.20;;
57317;SDS011;43157;50.982;18.132;2023-06-26T08:04:15;10.60;;;3.80;;
57317;SDS011;43157;50.982;18.132;2023-06-26T08:06:41;8.00;;;3.30;;
57317;SDS011;43157;50.982;18.132;2023-06-26T08:09:08;8.70;;;3.50;;
57317;SDS011;43157;50.982;18.132;2023-06-26T08:11:34;10.40;;;3.40;;
57317;SDS011;43157;50.982;18.132;2023-06-26T08:14:00;7.30;;;3.30;;
57317;SDS011;43157;50.982;18.132;2023-06-26T08:16:25;9.20;;;3.10;;
57317;SDS011;43157;50.982;18.132;2023-06-26T08:18:51;8.60;;;3.60;;
57317;SDS011;43157;50.982;18.132;2023-06-26T08:21:18;8.90;;;3.60;;
57317;SDS011;43157;50.982;18.132;2023-06-26T08:23:44;7.60;;;3.10;;
57317;SDS011;43157;50.982;18.132;2023-06-26T08:26:10;9.50;;;3.30;;
57317;SDS011;43157;50.982;18.132;2023-06-26T08:28:36;9.10;;;3.30;;
57317;SDS011;43157;50.982;18.132;2023-06-26T08:31:02;8.00;;;3.20;;
57317;SDS011;43157;50.982;18.132;2023-06-26T08:33:29;10.30;;;3.10;;
57317;SDS011;43157;50.982;18.132;2023-06-26T08:35:55;9.80;;;3.10;;
57317;SDS011;43157;50.982;18.132;2023-06-26T08:38:21;8.70;;;3.10;;
57317;SDS011;43157;50.982;18.132;2023-06-26T08:40:47;9.00;;;3.40;;
57317;SDS011;43157;50.982;18.132;2023-06-26T08:43:13;7.50;;;3.30;;
57317;SDS011;43157;50.982;18.132;2023-06-26T08:45:39;8.00;;;3.30;;
57317;SDS011;43157;50.982;18.132;2023-06-26T08:48:07;8.40;;;3.30;;
57317;SDS011;43157;50.982;18.132;2023-06-26T08:50:34;8.60;;;3.40;;
57317;SDS011;43157;50.982;18.132;2023-06-26T08:55:33;8.10;;;2.90;;
57317;SDS011;43157;50.982;18.132;2023-06-26T08:58:01;7.30;;;2.50;;
57317;SDS011;43157;50.982;18.132;2023-06-26T09:00:27;8.50;;;3.30;;
57317;SDS011;43157;50.982;18.132;2023-06-26T09:02:53;7.90;;;3.10;;
57317;SDS011;43157;50.982;18.132;2023-06-26T09:05:19;7.90;;;3.00;;
57317;SDS011;43157;50.982;18.132;2023-06-26T09:07:46;8.40;;;2.80;;
57317;SDS011;43157;50.982;18.132;2023-06-26T09:10:12;8.90;;;3.10;;
57317;SDS011;43157;50.982;18.132;2023-06-26T09:12:38;7.30;;;2.60;;
57317;SDS011;43157;50.982;18.132;2023-06-26T09:15:05;8.40;;;3.20;;
57317;SDS011;43157;50.982;18.132;2023-06-26T09:17:38;10.50;;;3.00;;
57317;SDS011;43157;50.982;18.132;2023-06-26T09:20:06;9.10;;;3.10;;
57317;SDS011;43157;50.982;18.132;2023-06-26T09:22:35;9.50;;;2.80;;
57317;SDS011;43157;50.982;18.132;2023-06-26T09:25:03;7.30;;;2.60;;
57317;SDS011;43157;50.982;18.132;2023-06-26T09:27:29;9.10;;;3.10;;
57317;SDS011;43157;50.982;18.132;2023-06-26T09:29:56;8.20;;;2.90;;
57317;SDS011;43157;50.982;18.132;2023-06-26T09:32:26;7.50;;;3.10;;
57317;SDS011;43157;50.982;18.132;2023-06-26T09:34:53;10.50;;;2.80;;
57317;SDS011;43157;50.982;18.132;2023-06-26T09:37:21;11.80;;;5.10;;
57317;SDS011;43157;50.982;18.132;2023-06-26T09:39:48;8.70;;;3.20;;
57317;SDS011;43157;50.982;18.132;2023-06-26T09:42:14;7.80;;;2.90;;
57317;SDS011;43157;50.982;18.132;2023-06-26T09:44:44;7.90;;;3.00;;
57317;SDS011;43157;50.982;18.132;2023-06-26T09:47:10;6.80;;;2.40;;
57317;SDS011;43157;50.982;18.132;2023-06-26T09:49:40;7.90;;;2.90;;
57317;SDS011;43157;50.982;18.132;2023-06-26T09:52:07;9.30;;;2.80;;
57317;SDS011;43157;50.982;18.132;2023-06-26T09:54:34;9.30;;;3.00;;
57317;SDS011;43157;50.982;18.132;2023-06-26T09:57:07;9.40;;;3.10;;
57317;SDS011;43157;50.982;18.132;2023-06-26T10:02:00;8.70;;;3.00;;
57317;SDS011;43157;50.982;18.132;2023-06-26T10:04:26;7.50;;;2.90;;
57317;SDS011;43157;50.982;18.132;2023-06-26T10:06:54;9.70;;;3.60;;
57317;SDS011;43157;50.982;18.132;2023-06-26T10:09:21;7.70;;;3.40;;
57317;SDS011;43157;50.982;18.132;2023-06-26T10:11:54;9.30;;;3.00;;
57317;SDS011;43157;50.982;18.132;2023-06-26T10:14:27;8.30;;;3.10;;
57317;SDS011;43157;50.982;18.132;2023-06-26T10:16:58;8.00;;;3.20;;
57317;SDS011;43157;50.982;18.132;2023-06-26T10:19:25;9.20;;;3.00;;
57317;SDS011;43157;50.982;18.132;2023-06-26T10:21:55;7.70;;;2.90;;
57317;SDS011;43157;50.982;18.132;2023-06-26T10:24:22;7.20;;;2.80;;
57317;SDS011;43157;50.982;18.132;2023-06-26T10:26:50;8.30;;;3.00;;
57317;SDS011;43157;50.982;18.132;2023-06-26T10:29:18;7.30;;;2.80;;
57317;SDS011;43157;50.982;18.132;2023-06-26T10:31:49;9.00;;;3.00;;
57317;SDS011;43157;50.982;18.132;2023-06-26T10:34:16;7.70;;;2.90;;
57317;SDS011;43157;50.982;18.132;2023-06-26T10:36:42;9.60;;;2.80;;
57317;SDS011;43157;50.982;18.132;2023-06-26T10:39:08;6.70;;;2.90;;
57317;SDS011;43157;50.982;18.132;2023-06-26T10:41:38;9.10;;;3.20;;
57317;SDS011;43157;50.982;18.132;2023-06-26T10:44:11;7.80;;;2.60;;
57317;SDS011;43157;50.982;18.132;2023-06-26T10:46:54;6.90;;;2.60;;
57317;SDS011;43157;50.982;18.132;2023-06-26T10:49:25;6.80;;;2.50;;
57317;SDS011;43157;50.982;18.132;2023-06-26T10:51:55;12.70;;;3.10;;
57317;SDS011;43157;50.982;18.132;2023-06-26T10:54:30;7.60;;;3.00;;
57317;SDS011;43157;50.982;18.132;2023-06-26T10:56:57;6.20;;;2.30;;
57317;SDS011;43157;50.982;18.132;2023-06-26T10:59:28;7.90;;;2.80;;
57317;SDS011;43157;50.982;18.132;2023-06-26T11:02:00;8.70;;;3.00;;
57317;SDS011;43157;50.982;18.132;2023-06-26T11:04:36;7.50;;;2.90;;
57317;SDS011;43157;50.982;18.132;2023-06-26T11:07:16;6.80;;;2.80;;
57317;SDS011;43157;50.982;18.132;2023-06-26T11:12:43;8.00;;;2.50;;
57317;SDS011;43157;50.982;18.132;2023-06-26T11:15:10;8.30;;;2.90;;
57317;SDS011;43157;50.982;18.132;2023-06-26T11:17:38;7.90;;;2.80;;
57317;SDS011;43157;50.982;18.132;2023-06-26T11:20:08;7.30;;;2.80;;
57317;SDS011;43157;50.982;18.132;2023-06-26T11:22:35;7.90;;;2.90;;
57317;SDS011;43157;50.982;18.132;2023-06-26T11:25:04;7.40;;;2.90;;
57317;SDS011;43157;50.982;18.132;2023-06-26T11:30:03;6.80;;;2.40;;
57317;SDS011;43157;50.982;18.132;2023-06-26T11:32:30;8.50;;;2.70;;
57317;SDS011;43157;50.982;18.132;2023-06-26T11:34:58;7.80;;;2.80;;
57317;SDS011;43157;50.982;18.132;2023-06-26T11:37:24;7.50;;;3.00;;
57317;SDS011;43157;50.982;18.132;2023-06-26T11:39:51;8.00;;;3.40;;
57317;SDS011;43157;50.982;18.132;2023-06-26T11:42:17;8.10;;;2.90;;
57317;SDS011;43157;50.982;18.132;2023-06-26T11:44:44;9.00;;;2.90;;
57317;SDS011;43157;50.982;18.132;2023-06-26T11:47:28;7.00;;;2.80;;
57317;SDS011;43157;50.982;18.132;2023-06-26T11:49:54;7.50;;;2.50;;
57317;SDS011;43157;50.982;18.132;2023-06-26T11:52:20;7.60;;;2.80;;
57317;SDS011;43157;50.982;18.132;2023-06-26T11:55:05;8.50;;;3.00;;
57317;SDS011;43157;50.982;18.132;2023-06-26T11:57:31;7.30;;;3.20;;
57317;SDS011;43157;50.982;18.132;2023-06-26T11:59:58;8.40;;;2.70;;
57317;SDS011;43157;50.982;18.132;2023-06-26T12:02:29;11.60;;;4.60;;
57317;SDS011;43157;50.982;18.132;2023-06-26T12:04:55;7.10;;;2.80;;
57317;SDS011;43157;50.982;18.132;2023-06-26T12:07:21;7.40;;;2.90;;
57317;SDS011;43157;50.982;18.132;2023-06-26T12:09:48;7.20;;;2.60;;
57317;SDS011;43157;50.982;18.132;2023-06-26T12:12:14;8.80;;;2.80;;
57317;SDS011;43157;50.982;18.132;2023-06-26T12:14:42;7.90;;;2.70;;
57317;SDS011;43157;50.982;18.132;2023-06-26T12:17:09;6.80;;;2.40;;
57317;SDS011;43157;50.982;18.132;2023-06-26T12:19:36;7.30;;;2.90;;
57317;SDS011;43157;50.982;18.132;2023-06-26T12:22:06;9.10;;;3.10;;
57317;SDS011;43157;50.982;18.132;2023-06-26T12:24:36;8.80;;;3.00;;
57317;SDS011;43157;50.982;18.132;2023-06-26T12:27:07;5.70;;;2.70;;
57317;SDS011;43157;50.982;18.132;2023-06-26T12:29:35;8.50;;;3.10;;
57317;SDS011;43157;50.982;18.132;2023-06-26T12:32:01;8.10;;;2.90;;
57317;SDS011;43157;50.982;18.132;2023-06-26T12:34:31;7.40;;;2.90;;
57317;SDS011;43157;50.982;18.132;2023-06-26T12:37:00;7.50;;;3.10;;
57317;SDS011;43157;50.982;18.132;2023-06-26T12:39:30;7.60;;;2.70;;
57317;SDS011;43157;50.982;18.132;2023-06-26T12:42:15;7.10;;;2.70;;
57317;SDS011;43157;50.982;18.132;2023-06-26T12:44:41;6.70;;;2.40;;
57317;SDS011;43157;50.982;18.132;2023-06-26T12:47:07;7.60;;;3.00;;
57317;SDS011;43157;50.982;18.132;2023-06-26T12:49:39;8.50;;;2.90;;
57317;SDS011;43157;50.982;18.132;2023-06-26T12:52:10;6.90;;;3.00;;
57317;SDS011;43157;50.982;18.132;2023-06-26T12:54:38;7.30;;;2.70;;
57317;SDS011;43157;50.982;18.132;2023-06-26T12:57:05;7.20;;;2.80;;
57317;SDS011;43157;50.982;18.132;2023-06-26T12:59:32;7.50;;;2.80;;
57317;SDS011;43157;50.982;18.132;2023-06-26T13:01:59;6.80;;;2.80;;
57317;SDS011;43157;50.982;18.132;2023-06-26T13:04:25;7.50;;;2.70;;
57317;SDS011;43157;50.982;18.132;2023-06-26T13:06:51;6.00;;;2.40;;
57317;SDS011;43157;50.982;18.132;2023-06-26T13:09:20;5.90;;;2.30;;
57317;SDS011;43157;50.982;18.132;2023-06-26T13:11:47;5.80;;;2.30;;
57317;SDS011;43157;50.982;18.132;2023-06-26T13:14:13;8.50;;;2.50;;
57317;SDS011;43157;50.982;18.132;2023-06-26T13:16:39;5.90;;;2.50;;
57317;SDS011;43157;50.982;18.132;2023-06-26T13:19:05;6.70;;;2.60;;
57317;SDS011;43157;50.982;18.132;2023-06-26T13:21:32;7.20;;;2.60;;
57317;SDS011;43157;50.982;18.132;2023-06-26T13:23:59;8.70;;;2.60;;
57317;SDS011;43157;50.982;18.132;2023-06-26T13:26:25;8.00;;;2.60;;
57317;SDS011;43157;50.982;18.132;2023-06-26T13:28:53;7.20;;;2.30;;
57317;SDS011;43157;50.982;18.132;2023-06-26T13:31:20;5.70;;;2.30;;
57317;SDS011;43157;50.982;18.132;2023-06-26T13:33:46;6.30;;;2.20;;
57317;SDS011;43157;50.982;18.132;2023-06-26T13:36:16;6.60;;;2.70;;
57317;SDS011;43157;50.982;18.132;2023-06-26T13:38:42;6.30;;;2.40;;
57317;SDS011;43157;50.982;18.132;2023-06-26T13:41:08;7.20;;;2.50;;
57317;SDS011;43157;50.982;18.132;2023-06-26T13:43:35;7.90;;;2.80;;
57317;SDS011;43157;50.982;18.132;2023-06-26T13:46:01;7.10;;;2.40;;
57317;SDS011;43157;50.982;18.132;2023-06-26T13:48:28;6.10;;;2.30;;
57317;SDS011;43157;50.982;18.132;2023-06-26T13:50:54;6.60;;;2.40;;
57317;SDS011;43157;50.982;18.132;2023-06-26T13:53:21;6.80;;;2.50;;
57317;SDS011;43157;50.982;18.132;2023-06-26T13:55:48;8.00;;;2.60;;
57317;SDS011;43157;50.982;18.132;2023-06-26T13:58:14;6.50;;;2.50;;
57317;SDS011;43157;50.982;18.132;2023-06-26T14:00:40;7.80;;;2.70;;
57317;SDS011;43157;50.982;18.132;2023-06-26T14:03:06;6.80;;;2.60;;
57317;SDS011;43157;50.982;18.132;2023-06-26T14:05:33;7.80;;;2.50;;
57317;SDS011;43157;50.982;18.132;2023-06-26T14:08:01;7.80;;;2.70;;
57317;SDS011;43157;50.982;18.132;2023-06-26T14:10:33;7.10;;;2.40;;
57317;SDS011;43157;50.982;18.132;2023-06-26T14:13:00;5.50;;;2.10;;
57317;SDS011;43157;50.982;18.132;2023-06-26T14:15:26;6.20;;;2.20;;
57317;SDS011;43157;50.982;18.132;2023-06-26T14:17:52;8.70;;;2.70;;
57317;SDS011;43157;50.982;18.132;2023-06-26T14:20:18;7.10;;;2.40;;
57317;SDS011;43157;50.982;18.132;2023-06-26T14:22:46;6.20;;;2.60;;
57317;SDS011;43157;50.982;18.132;2023-06-26T14:25:12;6.50;;;2.40;;
57317;SDS011;43157;50.982;18.132;2023-06-26T14:27:39;6.10;;;2.20;;
57317;SDS011;43157;50.982;18.132;2023-06-26T14:30:05;6.00;;;2.30;;
57317;SDS011;43157;50.982;18.132;2023-06-26T14:32:32;6.30;;;2.30;;
57317;SDS011;43157;50.982;18.132;2023-06-26T14:34:59;5.30;;;2.10;;
57317;SDS011;43157;50.982;18.132;2023-06-26T14:37:25;6.20;;;2.10;;
57317;SDS011;43157;50.982;18.132;2023-06-26T14:39:52;7.80;;;2.70;;
57317;SDS011;43157;50.982;18.132;2023-06-26T14:42:18;6.50;;;2.50;;
57317;SDS011;43157;50.982;18.132;2023-06-26T14:44:44;5.60;;;2.20;;
57317;SDS011;43157;50.982;18.132;2023-06-26T14:47:12;6.40;;;2.70;;
57317;SDS011;43157;50.982;18.132;2023-06-26T14:49:40;8.50;;;2.70;;
57317;SDS011;43157;50.982;18.132;2023-06-26T14:52:06;6.10;;;2.20;;
57317;SDS011;43157;50.982;18.132;2023-06-26T14:54:32;6.00;;;2.10;;
57317;SDS011;43157;50.982;18.132;2023-06-26T15:00:10;7.10;;;2.40;;
57317;SDS011;43157;50.982;18.132;2023-06-26T15:02:36;6.80;;;2.30;;
57317;SDS011;43157;50.982;18.132;2023-06-26T15:05:03;7.60;;;2.80;;